sensor_id;sensor_type;location;lat;lon;timestamp;P1;durP1;ratioP1;P2;durP2;ratioP2
57231;SDS011;43488;46.934;8.276;2023-04-03T00:01:13;605.28;;;262.20;;
57231;SDS011;43488;46.934;8.276;2023-04-03T00:03:42;613.33;;;269.20;;
57231;SDS011;43488;46.934;8.276;2023-04-03T00:06:10;606.80;;;266.67;;
57231;SDS011;43488;46.934;8.276;2023-04-03T00:08:39;608.70;;;262.83;;
57231;SDS011;43488;46.934;8.276;2023-04-03T00:11:07;606.58;;;266.83;;
57231;SDS011;43488;46.934;8.276;2023-04-03T00:13:37;610.75;;;268.10;;
57231;SDS011;43488;46.934;8.276;2023-04-03T00:16:06;607.20;;;266.40;;
57231;SDS011;43488;46.934;8.276;2023-04-03T00:18:38;606.92;;;261.40;;
57231;SDS011;43488;46.934;8.276;2023-04-03T00:21:07;608.15;;;264.70;;
57231;SDS011;43488;46.934;8.276;2023-04-03T00:23:38;610.78;;;261.73;;
57231;SDS011;43488;46.934;8.276;2023-04-03T00:26:06;612.97;;;269.48;;
57231;SDS011;43488;46.934;8.276;2023-04-03T00:28:34;609.78;;;256.30;;
57231;SDS011;43488;46.934;8.276;2023-04-03T00:31:02;629.00;;;277.50;;
57231;SDS011;43488;46.934;8.276;2023-04-03T00:33:29;622.92;;;266.08;;
57231;SDS011;43488;46.934;8.276;2023-04-03T00:35:56;622.42;;;272.25;;
57231;SDS011;43488;46.934;8.276;2023-04-03T00:38:24;625.28;;;269.90;;
57231;SDS011;43488;46.934;8.276;2023-04-03T00:40:51;622.17;;;270.83;;
57231;SDS011;43488;46.934;8.276;2023-04-03T00:43:23;625.17;;;268.38;;
57231;SDS011;43488;46.934;8.276;2023-04-03T00:45:56;623.38;;;269.58;;
57231;SDS011;43488;46.934;8.276;2023-04-03T00:48:28;624.42;;;266.23;;
57231;SDS011;43488;46.934;8.276;2023-04-03T00:51:16;626.50;;;271.50;;
57231;SDS011;43488;46.934;8.276;2023-04-03T00:53:52;626.30;;;269.60;;
57231;SDS011;43488;46.934;8.276;2023-04-03T00:56:27;633.30;;;281.33;;
57231;SDS011;43488;46.934;8.276;2023-04-03T00:59:04;633.22;;;276.13;;
57231;SDS011;43488;46.934;8.276;2023-04-03T01:01:48;624.73;;;270.07;;
57231;SDS011;43488;46.934;8.276;2023-04-03T01:04:51;622.20;;;271.13;;
57231;SDS011;43488;46.934;8.276;2023-04-03T01:07:16;633.97;;;283.52;;
57231;SDS011;43488;46.934;8.276;2023-04-03T01:09:51;625.85;;;271.58;;
57231;SDS011;43488;46.934;8.276;2023-04-03T01:12:26;628.67;;;272.98;;
57231;SDS011;43488;46.934;8.276;2023-04-03T01:15:01;631.78;;;275.00;;
57231;SDS011;43488;46.934;8.276;2023-04-03T01:17:42;622.38;;;264.95;;
57231;SDS011;43488;46.934;8.276;2023-04-03T01:20:18;633.50;;;273.27;;
57231;SDS011;43488;46.934;8.276;2023-04-03T01:25:44;625.03;;;263.95;;
57231;SDS011;43488;46.934;8.276;2023-04-03T01:28:22;635.50;;;283.38;;
57231;SDS011;43488;46.934;8.276;2023-04-03T01:34:23;610.03;;;260.42;;
57231;SDS011;43488;46.934;8.276;2023-04-03T01:36:52;604.83;;;255.27;;
57231;SDS011;43488;46.934;8.276;2023-04-03T01:39:20;614.50;;;271.02;;
57231;SDS011;43488;46.934;8.276;2023-04-03T01:41:48;601.25;;;258.80;;
57231;SDS011;43488;46.934;8.276;2023-04-03T01:44:16;597.20;;;260.98;;
57231;SDS011;43488;46.934;8.276;2023-04-03T01:46:43;559.95;;;239.40;;
57231;SDS011;43488;46.934;8.276;2023-04-03T01:49:11;584.00;;;256.98;;
57231;SDS011;43488;46.934;8.276;2023-04-03T01:51:38;595.15;;;256.85;;
57231;SDS011;43488;46.934;8.276;2023-04-03T01:54:05;595.00;;;257.55;;
57231;SDS011;43488;46.934;8.276;2023-04-03T01:56:32;595.97;;;257.52;;
57231;SDS011;43488;46.934;8.276;2023-04-03T01:59:00;597.63;;;265.17;;
57231;SDS011;43488;46.934;8.276;2023-04-03T02:01:27;594.60;;;253.60;;
57231;SDS011;43488;46.934;8.276;2023-04-03T02:03:55;595.95;;;255.07;;
57231;SDS011;43488;46.934;8.276;2023-04-03T02:06:22;601.30;;;259.75;;
57231;SDS011;43488;46.934;8.276;2023-04-03T02:08:50;603.42;;;265.55;;
57231;SDS011;43488;46.934;8.276;2023-04-03T02:11:17;669.13;;;286.73;;
57231;SDS011;43488;46.934;8.276;2023-04-03T02:13:45;644.65;;;276.90;;
57231;SDS011;43488;46.934;8.276;2023-04-03T02:16:13;666.05;;;288.77;;
57231;SDS011;43488;46.934;8.276;2023-04-03T02:18:40;661.95;;;286.40;;
57231;SDS011;43488;46.934;8.276;2023-04-03T02:21:08;657.72;;;279.05;;
57231;SDS011;43488;46.934;8.276;2023-04-03T02:23:36;658.25;;;283.75;;
57231;SDS011;43488;46.934;8.276;2023-04-03T02:26:04;652.63;;;274.30;;
57231;SDS011;43488;46.934;8.276;2023-04-03T02:28:35;660.85;;;288.38;;
57231;SDS011;43488;46.934;8.276;2023-04-03T02:31:03;643.33;;;264.30;;
57231;SDS011;43488;46.934;8.276;2023-04-03T02:36:03;655.72;;;268.67;;
57231;SDS011;43488;46.934;8.276;2023-04-03T02:38:33;657.13;;;283.77;;
57231;SDS011;43488;46.934;8.276;2023-04-03T02:41:08;645.63;;;273.15;;
57231;SDS011;43488;46.934;8.276;2023-04-03T02:43:38;644.08;;;270.48;;
57231;SDS011;43488;46.934;8.276;2023-04-03T02:46:06;651.55;;;274.25;;
57231;SDS011;43488;46.934;8.276;2023-04-03T02:48:34;640.35;;;278.15;;
57231;SDS011;43488;46.934;8.276;2023-04-03T02:51:03;622.72;;;264.10;;
57231;SDS011;43488;46.934;8.276;2023-04-03T02:53:32;598.28;;;248.90;;
57231;SDS011;43488;46.934;8.276;2023-04-03T02:55:59;585.85;;;250.30;;
57231;SDS011;43488;46.934;8.276;2023-04-03T02:58:26;594.25;;;258.63;;
57231;SDS011;43488;46.934;8.276;2023-04-03T03:00:54;582.95;;;252.27;;
57231;SDS011;43488;46.934;8.276;2023-04-03T03:03:21;585.53;;;246.77;;
57231;SDS011;43488;46.934;8.276;2023-04-03T03:05:49;593.55;;;252.68;;
57231;SDS011;43488;46.934;8.276;2023-04-03T03:08:27;592.85;;;258.05;;
57231;SDS011;43488;46.934;8.276;2023-04-03T03:10:57;592.45;;;254.15;;
57231;SDS011;43488;46.934;8.276;2023-04-03T03:13:28;597.92;;;260.23;;
57231;SDS011;43488;46.934;8.276;2023-04-03T03:15:56;593.45;;;251.05;;
57231;SDS011;43488;46.934;8.276;2023-04-03T03:18:24;590.17;;;257.92;;
57231;SDS011;43488;46.934;8.276;2023-04-03T03:20:56;593.85;;;252.75;;
57231;SDS011;43488;46.934;8.276;2023-04-03T03:23:27;591.50;;;252.00;;
57231;SDS011;43488;46.934;8.276;2023-04-03T03:25:57;592.88;;;250.60;;
57231;SDS011;43488;46.934;8.276;2023-04-03T03:28:28;593.60;;;252.48;;
57231;SDS011;43488;46.934;8.276;2023-04-03T03:30:55;598.08;;;254.88;;
57231;SDS011;43488;46.934;8.276;2023-04-03T03:33:24;606.83;;;264.48;;
57231;SDS011;43488;46.934;8.276;2023-04-03T03:35:53;609.45;;;264.65;;
57231;SDS011;43488;46.934;8.276;2023-04-03T03:38:21;608.88;;;261.17;;
57231;SDS011;43488;46.934;8.276;2023-04-03T03:40:50;597.13;;;252.45;;
57231;SDS011;43488;46.934;8.276;2023-04-03T03:43:17;611.55;;;264.23;;
57231;SDS011;43488;46.934;8.276;2023-04-03T03:45:46;605.67;;;256.75;;
57231;SDS011;43488;46.934;8.276;2023-04-03T03:48:20;614.67;;;260.02;;
57231;SDS011;43488;46.934;8.276;2023-04-03T03:50:47;588.60;;;246.93;;
57231;SDS011;43488;46.934;8.276;2023-04-03T03:53:16;546.88;;;235.18;;
57231;SDS011;43488;46.934;8.276;2023-04-03T03:55:44;572.47;;;247.60;;
57231;SDS011;43488;46.934;8.276;2023-04-03T03:58:11;528.88;;;196.60;;
57231;SDS011;43488;46.934;8.276;2023-04-03T04:00:38;549.08;;;234.68;;
57231;SDS011;43488;46.934;8.276;2023-04-03T04:03:06;518.35;;;217.45;;
57231;SDS011;43488;46.934;8.276;2023-04-03T04:05:33;514.83;;;214.13;;
57231;SDS011;43488;46.934;8.276;2023-04-03T04:08:01;504.40;;;214.02;;
57231;SDS011;43488;46.934;8.276;2023-04-03T04:10:28;505.08;;;212.63;;
57231;SDS011;43488;46.934;8.276;2023-04-03T04:13:00;514.58;;;220.85;;
57231;SDS011;43488;46.934;8.276;2023-04-03T04:15:28;503.08;;;209.70;;
57231;SDS011;43488;46.934;8.276;2023-04-03T04:17:55;555.38;;;240.10;;
57231;SDS011;43488;46.934;8.276;2023-04-03T04:20:23;537.15;;;228.85;;
57231;SDS011;43488;46.934;8.276;2023-04-03T04:22:52;519.97;;;227.43;;
57231;SDS011;43488;46.934;8.276;2023-04-03T04:25:19;487.73;;;205.40;;
57231;SDS011;43488;46.934;8.276;2023-04-03T04:27:47;501.45;;;215.50;;
57231;SDS011;43488;46.934;8.276;2023-04-03T04:30:14;490.58;;;203.70;;
57231;SDS011;43488;46.934;8.276;2023-04-03T04:32:41;497.80;;;213.73;;
57231;SDS011;43488;46.934;8.276;2023-04-03T04:35:12;499.08;;;212.85;;
57231;SDS011;43488;46.934;8.276;2023-04-03T04:37:39;493.73;;;211.93;;
57231;SDS011;43488;46.934;8.276;2023-04-03T04:40:07;530.22;;;223.38;;
57231;SDS011;43488;46.934;8.276;2023-04-03T04:42:35;505.98;;;215.98;;
57231;SDS011;43488;46.934;8.276;2023-04-03T04:45:03;503.10;;;216.90;;
57231;SDS011;43488;46.934;8.276;2023-04-03T04:47:31;497.65;;;211.35;;
57231;SDS011;43488;46.934;8.276;2023-04-03T04:49:58;497.25;;;207.95;;
57231;SDS011;43488;46.934;8.276;2023-04-03T04:52:25;510.83;;;222.60;;
57231;SDS011;43488;46.934;8.276;2023-04-03T04:54:53;505.02;;;214.45;;
57231;SDS011;43488;46.934;8.276;2023-04-03T04:57:20;509.35;;;221.27;;
57231;SDS011;43488;46.934;8.276;2023-04-03T04:59:48;501.75;;;212.60;;
57231;SDS011;43488;46.934;8.276;2023-04-03T05:02:15;495.67;;;215.05;;
57231;SDS011;43488;46.934;8.276;2023-04-03T05:04:43;493.52;;;214.13;;
57231;SDS011;43488;46.934;8.276;2023-04-03T05:07:12;485.90;;;209.48;;
57231;SDS011;43488;46.934;8.276;2023-04-03T05:09:39;490.63;;;207.93;;
57231;SDS011;43488;46.934;8.276;2023-04-03T05:12:09;496.98;;;212.68;;
57231;SDS011;43488;46.934;8.276;2023-04-03T05:14:36;499.77;;;213.27;;
57231;SDS011;43488;46.934;8.276;2023-04-03T05:17:04;506.98;;;218.15;;
57231;SDS011;43488;46.934;8.276;2023-04-03T05:19:31;517.92;;;226.05;;
57231;SDS011;43488;46.934;8.276;2023-04-03T05:21:58;505.73;;;213.00;;
57231;SDS011;43488;46.934;8.276;2023-04-03T05:24:26;517.97;;;223.98;;
57231;SDS011;43488;46.934;8.276;2023-04-03T05:26:53;528.53;;;228.40;;
57231;SDS011;43488;46.934;8.276;2023-04-03T05:29:21;551.25;;;238.68;;
57231;SDS011;43488;46.934;8.276;2023-04-03T05:31:49;551.25;;;237.60;;
57231;SDS011;43488;46.934;8.276;2023-04-03T05:34:17;551.30;;;236.07;;
57231;SDS011;43488;46.934;8.276;2023-04-03T05:36:45;553.90;;;240.70;;
57231;SDS011;43488;46.934;8.276;2023-04-03T05:39:12;553.30;;;234.18;;
57231;SDS011;43488;46.934;8.276;2023-04-03T05:41:39;548.40;;;234.38;;
57231;SDS011;43488;46.934;8.276;2023-04-03T05:44:07;553.08;;;235.85;;
57231;SDS011;43488;46.934;8.276;2023-04-03T05:46:34;555.70;;;241.50;;
57231;SDS011;43488;46.934;8.276;2023-04-03T05:49:02;549.53;;;228.10;;
57231;SDS011;43488;46.934;8.276;2023-04-03T05:51:31;556.55;;;237.40;;
57231;SDS011;43488;46.934;8.276;2023-04-03T05:54:06;559.78;;;241.65;;
57231;SDS011;43488;46.934;8.276;2023-04-03T05:56:47;564.30;;;246.40;;
57231;SDS011;43488;46.934;8.276;2023-04-03T05:59:15;537.85;;;213.43;;
57231;SDS011;43488;46.934;8.276;2023-04-03T06:01:43;561.80;;;234.10;;
57231;SDS011;43488;46.934;8.276;2023-04-03T06:04:11;547.45;;;217.52;;
57231;SDS011;43488;46.934;8.276;2023-04-03T06:09:11;541.92;;;207.68;;
57231;SDS011;43488;46.934;8.276;2023-04-03T06:11:40;554.00;;;215.07;;
57231;SDS011;43488;46.934;8.276;2023-04-03T06:14:08;578.33;;;254.13;;
57231;SDS011;43488;46.934;8.276;2023-04-03T06:16:36;542.20;;;216.52;;
57231;SDS011;43488;46.934;8.276;2023-04-03T06:19:06;578.03;;;253.43;;
57231;SDS011;43488;46.934;8.276;2023-04-03T06:21:35;569.20;;;244.70;;
57231;SDS011;43488;46.934;8.276;2023-04-03T06:24:06;575.85;;;253.48;;
57231;SDS011;43488;46.934;8.276;2023-04-03T06:26:33;571.35;;;248.68;;
57231;SDS011;43488;46.934;8.276;2023-04-03T06:29:01;576.58;;;252.15;;
57231;SDS011;43488;46.934;8.276;2023-04-03T06:31:28;528.15;;;195.35;;
57231;SDS011;43488;46.934;8.276;2023-04-03T06:33:56;548.63;;;222.40;;
57231;SDS011;43488;46.934;8.276;2023-04-03T06:36:23;562.85;;;242.55;;
57231;SDS011;43488;46.934;8.276;2023-04-03T06:38:51;539.88;;;214.05;;
57231;SDS011;43488;46.934;8.276;2023-04-03T06:41:18;563.38;;;247.60;;
57231;SDS011;43488;46.934;8.276;2023-04-03T06:43:46;544.90;;;222.10;;
57231;SDS011;43488;46.934;8.276;2023-04-03T06:46:15;552.65;;;239.02;;
57231;SDS011;43488;46.934;8.276;2023-04-03T06:48:44;549.08;;;235.90;;
57231;SDS011;43488;46.934;8.276;2023-04-03T06:51:22;551.00;;;236.45;;
57231;SDS011;43488;46.934;8.276;2023-04-03T06:53:52;514.20;;;208.20;;
57231;SDS011;43488;46.934;8.276;2023-04-03T06:56:22;523.17;;;220.70;;
57231;SDS011;43488;46.934;8.276;2023-04-03T06:58:50;510.85;;;217.10;;
57231;SDS011;43488;46.934;8.276;2023-04-03T07:03:54;494.88;;;206.55;;
57231;SDS011;43488;46.934;8.276;2023-04-03T07:06:22;510.10;;;217.93;;
57231;SDS011;43488;46.934;8.276;2023-04-03T07:08:53;514.67;;;212.07;;
57231;SDS011;43488;46.934;8.276;2023-04-03T07:11:21;516.40;;;217.15;;
57231;SDS011;43488;46.934;8.276;2023-04-03T07:13:49;523.35;;;224.40;;
57231;SDS011;43488;46.934;8.276;2023-04-03T07:16:17;526.17;;;224.60;;
57231;SDS011;43488;46.934;8.276;2023-04-03T07:18:46;552.63;;;238.10;;
57231;SDS011;43488;46.934;8.276;2023-04-03T07:21:13;529.95;;;229.43;;
57231;SDS011;43488;46.934;8.276;2023-04-03T07:23:41;567.22;;;244.45;;
57231;SDS011;43488;46.934;8.276;2023-04-03T07:26:08;531.85;;;228.07;;
57231;SDS011;43488;46.934;8.276;2023-04-03T07:28:35;569.15;;;243.90;;
57231;SDS011;43488;46.934;8.276;2023-04-03T07:31:03;528.58;;;225.27;;
57231;SDS011;43488;46.934;8.276;2023-04-03T07:33:34;527.20;;;220.27;;
57231;SDS011;43488;46.934;8.276;2023-04-03T07:36:03;533.83;;;199.38;;
57231;SDS011;43488;46.934;8.276;2023-04-03T07:38:34;550.67;;;233.32;;
57231;SDS011;43488;46.934;8.276;2023-04-03T07:41:03;554.70;;;232.43;;
57231;SDS011;43488;46.934;8.276;2023-04-03T07:43:32;549.67;;;232.88;;
57231;SDS011;43488;46.934;8.276;2023-04-03T07:46:01;556.63;;;246.20;;
57231;SDS011;43488;46.934;8.276;2023-04-03T07:48:31;521.75;;;198.32;;
57231;SDS011;43488;46.934;8.276;2023-04-03T07:50:59;547.40;;;232.35;;
57231;SDS011;43488;46.934;8.276;2023-04-03T07:53:30;529.53;;;212.98;;
57231;SDS011;43488;46.934;8.276;2023-04-03T07:55:59;549.00;;;238.40;;
57231;SDS011;43488;46.934;8.276;2023-04-03T07:58:29;566.40;;;238.60;;
57231;SDS011;43488;46.934;8.276;2023-04-03T08:00:57;574.28;;;241.65;;
57231;SDS011;43488;46.934;8.276;2023-04-03T08:03:26;582.08;;;248.93;;
57231;SDS011;43488;46.934;8.276;2023-04-03T08:06:00;594.50;;;257.10;;
57231;SDS011;43488;46.934;8.276;2023-04-03T08:08:33;590.70;;;251.68;;
57231;SDS011;43488;46.934;8.276;2023-04-03T08:11:01;596.78;;;259.35;;
57231;SDS011;43488;46.934;8.276;2023-04-03T08:13:32;594.00;;;257.30;;
57231;SDS011;43488;46.934;8.276;2023-04-03T08:16:09;593.80;;;258.15;;
57231;SDS011;43488;46.934;8.276;2023-04-03T08:21:12;598.00;;;257.75;;
57231;SDS011;43488;46.934;8.276;2023-04-03T08:23:40;593.78;;;253.02;;
57231;SDS011;43488;46.934;8.276;2023-04-03T08:26:09;593.20;;;254.50;;
57231;SDS011;43488;46.934;8.276;2023-04-03T08:28:42;592.35;;;252.80;;
57231;SDS011;43488;46.934;8.276;2023-04-03T08:31:11;587.10;;;247.20;;
57231;SDS011;43488;46.934;8.276;2023-04-03T08:33:44;576.63;;;242.60;;
57231;SDS011;43488;46.934;8.276;2023-04-03T08:36:23;585.05;;;252.35;;
57231;SDS011;43488;46.934;8.276;2023-04-03T08:38:53;594.50;;;254.75;;
57231;SDS011;43488;46.934;8.276;2023-04-03T08:49:40;600.75;;;251.10;;
57231;SDS011;43488;46.934;8.276;2023-04-03T08:52:18;598.70;;;251.27;;
57231;SDS011;43488;46.934;8.276;2023-04-03T08:54:55;597.80;;;251.18;;
57231;SDS011;43488;46.934;8.276;2023-04-03T08:57:34;604.20;;;263.00;;
57231;SDS011;43488;46.934;8.276;2023-04-03T09:02:47;606.05;;;255.18;;
57231;SDS011;43488;46.934;8.276;2023-04-03T09:05:29;612.30;;;262.75;;
57231;SDS011;43488;46.934;8.276;2023-04-03T09:17:38;607.53;;;257.75;;
57231;SDS011;43488;46.934;8.276;2023-04-03T09:23:13;617.58;;;262.27;;
57231;SDS011;43488;46.934;8.276;2023-04-03T09:25:57;615.97;;;265.27;;
57231;SDS011;43488;46.934;8.276;2023-04-03T09:28:34;605.17;;;249.30;;
57231;SDS011;43488;46.934;8.276;2023-04-03T09:31:23;616.70;;;267.38;;
57231;SDS011;43488;46.934;8.276;2023-04-03T09:33:57;601.10;;;246.13;;
57231;SDS011;43488;46.934;8.276;2023-04-03T09:36:40;597.28;;;250.20;;
57231;SDS011;43488;46.934;8.276;2023-04-03T09:39:19;617.83;;;275.08;;
57231;SDS011;43488;46.934;8.276;2023-04-03T09:42:04;616.90;;;262.55;;
57231;SDS011;43488;46.934;8.276;2023-04-03T09:44:44;623.55;;;270.58;;
57231;SDS011;43488;46.934;8.276;2023-04-03T09:47:34;617.65;;;263.05;;
57231;SDS011;43488;46.934;8.276;2023-04-03T09:52:46;618.10;;;262.58;;
57231;SDS011;43488;46.934;8.276;2023-04-03T09:55:22;626.20;;;271.15;;
57231;SDS011;43488;46.934;8.276;2023-04-03T09:57:57;610.13;;;254.10;;
57231;SDS011;43488;46.934;8.276;2023-04-03T10:00:33;624.05;;;267.70;;
57231;SDS011;43488;46.934;8.276;2023-04-03T10:03:23;618.88;;;262.77;;
57231;SDS011;43488;46.934;8.276;2023-04-03T10:06:04;625.30;;;267.42;;
57231;SDS011;43488;46.934;8.276;2023-04-03T10:09:01;620.65;;;265.30;;
57231;SDS011;43488;46.934;8.276;2023-04-03T10:11:57;623.67;;;265.98;;
57231;SDS011;43488;46.934;8.276;2023-04-03T10:14:33;624.95;;;268.05;;
57231;SDS011;43488;46.934;8.276;2023-04-03T10:17:26;632.40;;;271.40;;
57231;SDS011;43488;46.934;8.276;2023-04-03T10:20:24;622.58;;;258.90;;
57231;SDS011;43488;46.934;8.276;2023-04-03T10:29:39;643.25;;;267.98;;
57231;SDS011;43488;46.934;8.276;2023-04-03T10:36:05;641.03;;;269.80;;
57231;SDS011;43488;46.934;8.276;2023-04-03T10:39:23;633.70;;;258.95;;
57231;SDS011;43488;46.934;8.276;2023-04-03T10:42:39;635.65;;;261.05;;
57231;SDS011;43488;46.934;8.276;2023-04-03T10:48:04;645.92;;;274.73;;
57231;SDS011;43488;46.934;8.276;2023-04-03T10:53:44;633.78;;;260.52;;
57231;SDS011;43488;46.934;8.276;2023-04-03T10:56:37;619.70;;;246.82;;
57231;SDS011;43488;46.934;8.276;2023-04-03T10:59:27;622.30;;;250.18;;
57231;SDS011;43488;46.934;8.276;2023-04-03T11:04:50;624.00;;;252.02;;
57231;SDS011;43488;46.934;8.276;2023-04-03T11:07:28;636.80;;;267.02;;
57231;SDS011;43488;46.934;8.276;2023-04-03T11:10:15;621.95;;;248.43;;
57231;SDS011;43488;46.934;8.276;2023-04-03T11:15:43;645.35;;;273.95;;
57231;SDS011;43488;46.934;8.276;2023-04-03T11:18:17;624.55;;;254.63;;
57231;SDS011;43488;46.934;8.276;2023-04-03T11:21:00;644.47;;;275.05;;
57231;SDS011;43488;46.934;8.276;2023-04-03T11:23:38;619.63;;;246.43;;
57231;SDS011;43488;46.934;8.276;2023-04-03T11:26:11;646.17;;;276.58;;
57231;SDS011;43488;46.934;8.276;2023-04-03T11:28:42;630.47;;;260.00;;
57231;SDS011;43488;46.934;8.276;2023-04-03T11:39:57;646.20;;;274.17;;
57231;SDS011;43488;46.934;8.276;2023-04-03T11:43:23;643.05;;;267.58;;
57231;SDS011;43488;46.934;8.276;2023-04-03T11:45:33;635.28;;;266.13;;
57231;SDS011;43488;46.934;8.276;2023-04-03T11:50:54;630.35;;;255.65;;
57231;SDS011;43488;46.934;8.276;2023-04-03T11:53:36;636.13;;;259.25;;
57231;SDS011;43488;46.934;8.276;2023-04-03T12:06:58;639.65;;;265.52;;
57231;SDS011;43488;46.934;8.276;2023-04-03T12:12:21;636.38;;;259.23;;
57231;SDS011;43488;46.934;8.276;2023-04-03T12:17:53;636.15;;;263.40;;
57231;SDS011;43488;46.934;8.276;2023-04-03T12:23:24;629.28;;;258.48;;
57231;SDS011;43488;46.934;8.276;2023-04-03T12:26:20;644.75;;;276.65;;
57231;SDS011;43488;46.934;8.276;2023-04-03T12:28:53;631.08;;;259.95;;
57231;SDS011;43488;46.934;8.276;2023-04-03T12:31:22;646.53;;;276.92;;
57231;SDS011;43488;46.934;8.276;2023-04-03T12:36:50;633.63;;;264.23;;
57231;SDS011;43488;46.934;8.276;2023-04-03T12:45:23;624.92;;;252.07;;
57231;SDS011;43488;46.934;8.276;2023-04-03T12:47:53;621.65;;;250.82;;
57231;SDS011;43488;46.934;8.276;2023-04-03T12:50:27;641.25;;;274.88;;
57231;SDS011;43488;46.934;8.276;2023-04-03T12:53:10;645.25;;;276.08;;
57231;SDS011;43488;46.934;8.276;2023-04-03T12:55:56;616.75;;;245.73;;
57231;SDS011;43488;46.934;8.276;2023-04-03T12:58:44;648.30;;;276.75;;
57231;SDS011;43488;46.934;8.276;2023-04-03T13:01:16;638.53;;;268.55;;
57231;SDS011;43488;46.934;8.276;2023-04-03T13:03:49;637.92;;;264.20;;
57231;SDS011;43488;46.934;8.276;2023-04-03T13:06:23;634.08;;;255.48;;
57231;SDS011;43488;46.934;8.276;2023-04-03T13:08:56;643.70;;;272.60;;
57231;SDS011;43488;46.934;8.276;2023-04-03T13:11:27;636.72;;;264.80;;
57231;SDS011;43488;46.934;8.276;2023-04-03T13:14:05;643.17;;;268.48;;
57231;SDS011;43488;46.934;8.276;2023-04-03T13:16:53;646.60;;;274.50;;
57231;SDS011;43488;46.934;8.276;2023-04-03T13:19:36;640.22;;;266.70;;
57231;SDS011;43488;46.934;8.276;2023-04-03T13:22:08;651.78;;;283.90;;
57231;SDS011;43488;46.934;8.276;2023-04-03T13:25:06;638.10;;;263.73;;
57231;SDS011;43488;46.934;8.276;2023-04-03T13:27:36;648.13;;;274.02;;
57231;SDS011;43488;46.934;8.276;2023-04-03T13:30:20;636.58;;;259.67;;
57231;SDS011;43488;46.934;8.276;2023-04-03T13:32:58;632.38;;;255.80;;
57231;SDS011;43488;46.934;8.276;2023-04-03T13:35:31;644.10;;;268.10;;
57231;SDS011;43488;46.934;8.276;2023-04-03T13:38:01;641.42;;;266.25;;
57231;SDS011;43488;46.934;8.276;2023-04-03T13:43:27;654.65;;;282.35;;
57231;SDS011;43488;46.934;8.276;2023-04-03T13:45:59;651.33;;;273.45;;
57231;SDS011;43488;46.934;8.276;2023-04-03T13:48:42;643.50;;;266.83;;
57231;SDS011;43488;46.934;8.276;2023-04-03T13:53:58;652.95;;;283.25;;
57231;SDS011;43488;46.934;8.276;2023-04-03T13:56:35;651.80;;;276.20;;
57231;SDS011;43488;46.934;8.276;2023-04-03T14:04:24;643.55;;;267.33;;
57231;SDS011;43488;46.934;8.276;2023-04-03T14:06:55;649.33;;;267.98;;
57231;SDS011;43488;46.934;8.276;2023-04-03T14:09:26;649.45;;;272.30;;
57231;SDS011;43488;46.934;8.276;2023-04-03T14:11:55;654.80;;;283.80;;
57231;SDS011;43488;46.934;8.276;2023-04-03T14:14:32;640.88;;;265.75;;
57231;SDS011;43488;46.934;8.276;2023-04-03T14:17:10;653.13;;;279.42;;
57231;SDS011;43488;46.934;8.276;2023-04-03T14:19:48;652.05;;;278.90;;
57231;SDS011;43488;46.934;8.276;2023-04-03T14:22:27;641.55;;;264.65;;
57231;SDS011;43488;46.934;8.276;2023-04-03T14:24:58;646.38;;;274.70;;
57231;SDS011;43488;46.934;8.276;2023-04-03T14:27:33;643.90;;;267.05;;
57231;SDS011;43488;46.934;8.276;2023-04-03T14:30:07;639.40;;;264.88;;
57231;SDS011;43488;46.934;8.276;2023-04-03T14:33:03;649.25;;;277.27;;
57231;SDS011;43488;46.934;8.276;2023-04-03T14:35:32;644.67;;;272.48;;
57231;SDS011;43488;46.934;8.276;2023-04-03T14:38:00;651.97;;;281.67;;
57231;SDS011;43488;46.934;8.276;2023-04-03T14:40:27;643.38;;;269.75;;
57231;SDS011;43488;46.934;8.276;2023-04-03T14:42:55;632.53;;;261.23;;
57231;SDS011;43488;46.934;8.276;2023-04-03T14:45:24;636.15;;;269.50;;
57231;SDS011;43488;46.934;8.276;2023-04-03T14:47:53;638.78;;;265.88;;
57231;SDS011;43488;46.934;8.276;2023-04-03T14:50:24;643.97;;;275.70;;
57231;SDS011;43488;46.934;8.276;2023-04-03T14:52:55;640.97;;;270.80;;
57231;SDS011;43488;46.934;8.276;2023-04-03T14:55:26;633.25;;;263.75;;
57231;SDS011;43488;46.934;8.276;2023-04-03T14:57:55;627.88;;;255.00;;
57231;SDS011;43488;46.934;8.276;2023-04-03T15:00:24;630.00;;;255.80;;
57231;SDS011;43488;46.934;8.276;2023-04-03T15:02:55;651.15;;;284.67;;
57231;SDS011;43488;46.934;8.276;2023-04-03T15:05:23;645.33;;;274.05;;
57231;SDS011;43488;46.934;8.276;2023-04-03T15:07:54;649.03;;;278.15;;
57231;SDS011;43488;46.934;8.276;2023-04-03T15:10:25;638.70;;;266.85;;
57231;SDS011;43488;46.934;8.276;2023-04-03T15:12:55;642.72;;;272.75;;
57231;SDS011;43488;46.934;8.276;2023-04-03T15:15:28;636.42;;;262.55;;
57231;SDS011;43488;46.934;8.276;2023-04-03T15:17:56;640.95;;;263.63;;
57231;SDS011;43488;46.934;8.276;2023-04-03T15:20:25;636.08;;;264.25;;
57231;SDS011;43488;46.934;8.276;2023-04-03T15:22:54;645.72;;;273.58;;
57231;SDS011;43488;46.934;8.276;2023-04-03T15:25:23;637.22;;;268.10;;
57231;SDS011;43488;46.934;8.276;2023-04-03T15:27:55;644.70;;;268.88;;
57231;SDS011;43488;46.934;8.276;2023-04-03T15:30:24;641.33;;;271.48;;
57231;SDS011;43488;46.934;8.276;2023-04-03T15:32:54;646.00;;;271.60;;
57231;SDS011;43488;46.934;8.276;2023-04-03T15:35:22;640.42;;;267.70;;
57231;SDS011;43488;46.934;8.276;2023-04-03T15:37:50;653.50;;;279.00;;
57231;SDS011;43488;46.934;8.276;2023-04-03T15:40:18;649.50;;;273.27;;
57231;SDS011;43488;46.934;8.276;2023-04-03T15:42:45;650.22;;;277.48;;
57231;SDS011;43488;46.934;8.276;2023-04-03T15:45:13;653.10;;;281.48;;
57231;SDS011;43488;46.934;8.276;2023-04-03T15:47:41;647.00;;;268.55;;
57231;SDS011;43488;46.934;8.276;2023-04-03T15:50:09;655.08;;;282.25;;
57231;SDS011;43488;46.934;8.276;2023-04-03T15:52:36;653.67;;;277.63;;
57231;SDS011;43488;46.934;8.276;2023-04-03T15:55:04;655.20;;;283.35;;
57231;SDS011;43488;46.934;8.276;2023-04-03T15:57:32;643.53;;;265.17;;
57231;SDS011;43488;46.934;8.276;2023-04-03T16:00:00;650.55;;;275.05;;
57231;SDS011;43488;46.934;8.276;2023-04-03T16:02:28;654.95;;;281.13;;
57231;SDS011;43488;46.934;8.276;2023-04-03T16:04:57;654.15;;;284.73;;
57231;SDS011;43488;46.934;8.276;2023-04-03T16:07:25;649.88;;;270.20;;
57231;SDS011;43488;46.934;8.276;2023-04-03T16:09:52;651.53;;;275.77;;
57231;SDS011;43488;46.934;8.276;2023-04-03T16:12:19;652.17;;;277.73;;
57231;SDS011;43488;46.934;8.276;2023-04-03T16:14:48;652.97;;;281.17;;
57231;SDS011;43488;46.934;8.276;2023-04-03T16:17:15;646.58;;;267.48;;
57231;SDS011;43488;46.934;8.276;2023-04-03T16:19:43;646.60;;;270.83;;